sensor_id;sensor_type;location;lat;lon;timestamp;pressure;altitude;pressure_sealevel;temperature;humidity
71344;BME280;59146;43.850;25.948;2023-04-03T00:01:07;100466.84;;;10.73;66.52
71344;BME280;59146;43.850;25.948;2023-04-03T00:03:33;100393.66;;;10.47;66.48
71344;BME280;59146;43.850;25.948;2023-04-03T00:05:58;100437.19;;;10.74;66.68
71344;BME280;59146;43.850;25.948;2023-04-03T00:08:24;100388.78;;;10.26;66.80
71344;BME280;59146;43.850;25.948;2023-04-03T00:10:50;100449.50;;;10.72;67.46
71344;BME280;59146;43.850;25.948;2023-04-03T00:13:16;100468.72;;;10.71;68.22
71344;BME280;59146;43.850;25.948;2023-04-03T00:15:42;100471.31;;;10.85;68.17
71344;BME280;59146;43.850;25.948;2023-04-03T00:18:07;100459.84;;;10.74;68.60
71344;BME280;59146;43.850;25.948;2023-04-03T00:20:34;100386.00;;;10.44;68.11
71344;BME280;59146;43.850;25.948;2023-04-03T00:23:00;100414.63;;;10.59;67.04
71344;BME280;59146;43.850;25.948;2023-04-03T00:25:26;100474.50;;;10.90;67.13
71344;BME280;59146;43.850;25.948;2023-04-03T00:27:52;100475.25;;;10.78;67.41
71344;BME280;59146;43.850;25.948;2023-04-03T00:30:20;100392.50;;;10.22;68.31
71344;BME280;59146;43.850;25.948;2023-04-03T00:32:47;100420.69;;;10.31;68.18
71344;BME280;59146;43.850;25.948;2023-04-03T00:35:13;100448.47;;;10.47;68.40
71344;BME280;59146;43.850;25.948;2023-04-03T00:37:41;100448.22;;;10.51;68.82
71344;BME280;59146;43.850;25.948;2023-04-03T00:40:07;100481.31;;;10.51;69.85
71344;BME280;59146;43.850;25.948;2023-04-03T00:42:33;100455.75;;;10.27;70.27
71344;BME280;59146;43.850;25.948;2023-04-03T00:47:25;100452.97;;;10.30;70.36
71344;BME280;59146;43.850;25.948;2023-04-03T00:49:52;100396.47;;;9.86;70.49
71344;BME280;59146;43.850;25.948;2023-04-03T00:52:21;100446.78;;;10.17;70.41
71344;BME280;59146;43.850;25.948;2023-04-03T00:54:50;100370.06;;;9.76;70.33
71344;BME280;59146;43.850;25.948;2023-04-03T00:57:17;100405.84;;;9.74;71.10
71344;BME280;59146;43.850;25.948;2023-04-03T00:59:49;100394.84;;;9.69;71.08
71344;BME280;59146;43.850;25.948;2023-04-03T01:02:16;100472.13;;;10.15;71.19
71344;BME280;59146;43.850;25.948;2023-04-03T01:04:42;100388.03;;;9.67;70.90
71344;BME280;59146;43.850;25.948;2023-04-03T01:09:34;100436.81;;;9.80;71.62
71344;BME280;59146;43.850;25.948;2023-04-03T01:14:42;100449.97;;;9.93;69.77
71344;BME280;59146;43.850;25.948;2023-04-03T01:17:41;100477.69;;;10.09;70.09
71344;BME280;59146;43.850;25.948;2023-04-03T01:23:46;100476.78;;;10.24;69.30
71344;BME280;59146;43.850;25.948;2023-04-03T01:26:15;100415.47;;;9.88;68.81
71344;BME280;59146;43.850;25.948;2023-04-03T01:28:40;100401.09;;;9.81;68.76
71344;BME280;59146;43.850;25.948;2023-04-03T01:31:28;100483.25;;;10.33;68.69
71344;BME280;59146;43.850;25.948;2023-04-03T01:33:56;100436.50;;;10.14;67.14
71344;BME280;59146;43.850;25.948;2023-04-03T01:36:24;100461.06;;;10.40;66.98
71344;BME280;59146;43.850;25.948;2023-04-03T01:38:51;100406.38;;;10.09;66.90
71344;BME280;59146;43.850;25.948;2023-04-03T01:41:17;100461.72;;;10.29;67.40
71344;BME280;59146;43.850;25.948;2023-04-03T01:43:43;100459.09;;;10.44;66.74
71344;BME280;59146;43.850;25.948;2023-04-03T01:46:08;100412.09;;;10.15;66.29
71344;BME280;59146;43.850;25.948;2023-04-03T01:48:34;100463.75;;;10.24;66.94
71344;BME280;59146;43.850;25.948;2023-04-03T01:50:59;100425.81;;;9.89;67.33
71344;BME280;59146;43.850;25.948;2023-04-03T01:53:25;100390.13;;;9.76;67.38
71344;BME280;59146;43.850;25.948;2023-04-03T01:55:51;100452.50;;;10.08;67.37
71344;BME280;59146;43.850;25.948;2023-04-03T01:58:16;100443.91;;;9.92;67.40
71344;BME280;59146;43.850;25.948;2023-04-03T02:00:42;100476.78;;;10.10;67.62
71344;BME280;59146;43.850;25.948;2023-04-03T02:03:07;100400.03;;;9.55;68.00
71344;BME280;59146;43.850;25.948;2023-04-03T02:05:33;100451.19;;;10.01;67.85
71344;BME280;59146;43.850;25.948;2023-04-03T02:07:58;100473.09;;;9.99;68.12
71344;BME280;59146;43.850;25.948;2023-04-03T02:10:24;100410.13;;;9.61;68.19
71344;BME280;59146;43.850;25.948;2023-04-03T02:12:49;100481.75;;;9.99;68.24
71344;BME280;59146;43.850;25.948;2023-04-03T02:15:15;100457.31;;;9.86;67.95
71344;BME280;59146;43.850;25.948;2023-04-03T02:17:41;100419.09;;;9.55;68.24
71344;BME280;59146;43.850;25.948;2023-04-03T02:20:07;100481.56;;;9.88;68.33
71344;BME280;59146;43.850;25.948;2023-04-03T02:22:32;100488.19;;;9.78;68.68
71344;BME280;59146;43.850;25.948;2023-04-03T02:24:57;100448.63;;;9.56;68.89
71344;BME280;59146;43.850;25.948;2023-04-03T02:27:23;100395.38;;;9.30;68.80
71344;BME280;59146;43.850;25.948;2023-04-03T02:29:48;100418.56;;;9.35;68.90
71344;BME280;59146;43.850;25.948;2023-04-03T02:32:14;100482.03;;;9.65;69.32
71344;BME280;59146;43.850;25.948;2023-04-03T02:34:40;100484.75;;;9.48;70.10
71344;BME280;59146;43.850;25.948;2023-04-03T02:37:05;100463.97;;;9.31;70.53
71344;BME280;59146;43.850;25.948;2023-04-03T02:39:31;100490.03;;;9.31;70.51
71344;BME280;59146;43.850;25.948;2023-04-03T02:41:56;100504.78;;;9.32;70.85
71344;BME280;59146;43.850;25.948;2023-04-03T02:44:22;100500.22;;;9.20;71.14
71344;BME280;59146;43.850;25.948;2023-04-03T02:46:49;100401.59;;;8.34;71.78
71344;BME280;59146;43.850;25.948;2023-04-03T02:49:14;100468.78;;;8.92;71.83
71344;BME280;59146;43.850;25.948;2023-04-03T02:51:41;100502.41;;;8.96;71.93
71344;BME280;59146;43.850;25.948;2023-04-03T02:54:06;100501.66;;;8.94;71.87
71344;BME280;59146;43.850;25.948;2023-04-03T02:56:32;100487.31;;;8.70;72.90
71344;BME280;59146;43.850;25.948;2023-04-03T02:58:58;100512.31;;;8.90;73.37
71344;BME280;59146;43.850;25.948;2023-04-03T03:01:24;100428.88;;;8.27;74.68
71344;BME280;59146;43.850;25.948;2023-04-03T03:03:49;100502.19;;;8.68;74.93
71344;BME280;59146;43.850;25.948;2023-04-03T03:06:16;100451.66;;;8.39;74.97
71344;BME280;59146;43.850;25.948;2023-04-03T03:08:42;100521.97;;;8.88;74.49
71344;BME280;59146;43.850;25.948;2023-04-03T03:11:08;100503.69;;;8.72;73.96
71344;BME280;59146;43.850;25.948;2023-04-03T03:13:35;100503.78;;;8.70;75.42
71344;BME280;59146;43.850;25.948;2023-04-03T03:16:01;100526.47;;;8.68;75.30
71344;BME280;59146;43.850;25.948;2023-04-03T03:18:27;100520.63;;;8.63;75.56
71344;BME280;59146;43.850;25.948;2023-04-03T03:20:54;100489.47;;;8.29;75.37
71344;BME280;59146;43.850;25.948;2023-04-03T03:23:23;100467.34;;;8.21;75.00
71344;BME280;59146;43.850;25.948;2023-04-03T03:25:55;100518.69;;;8.51;74.85
71344;BME280;59146;43.850;25.948;2023-04-03T03:28:21;100462.72;;;8.09;74.91
71344;BME280;59146;43.850;25.948;2023-04-03T03:30:47;100439.19;;;7.94;75.28
71344;BME280;59146;43.850;25.948;2023-04-03T03:33:12;100518.63;;;8.19;77.68
71344;BME280;59146;43.850;25.948;2023-04-03T03:35:37;100514.53;;;8.13;78.75
71344;BME280;59146;43.850;25.948;2023-04-03T03:38:03;100456.84;;;7.71;78.82
71344;BME280;59146;43.850;25.948;2023-04-03T03:40:28;100518.69;;;8.00;79.24
71344;BME280;59146;43.850;25.948;2023-04-03T03:42:54;100422.59;;;7.29;79.36
71344;BME280;59146;43.850;25.948;2023-04-03T03:45:19;100548.44;;;7.94;80.10
71344;BME280;59146;43.850;25.948;2023-04-03T03:47:44;100349.72;;;6.77;80.00
71344;BME280;59146;43.850;25.948;2023-04-03T03:50:10;100567.88;;;7.87;81.55
71344;BME280;59146;43.850;25.948;2023-04-03T03:52:36;100564.38;;;7.70;81.26
71344;BME280;59146;43.850;25.948;2023-04-03T03:55:01;100497.56;;;7.36;80.31
71344;BME280;59146;43.850;25.948;2023-04-03T03:57:26;100542.91;;;7.66;79.90
71344;BME280;59146;43.850;25.948;2023-04-03T03:59:54;100556.09;;;7.62;80.53
71344;BME280;59146;43.850;25.948;2023-04-03T04:02:19;100479.19;;;7.03;80.58
71344;BME280;59146;43.850;25.948;2023-04-03T04:04:45;100472.75;;;7.12;80.70
71344;BME280;59146;43.850;25.948;2023-04-03T04:07:11;100450.38;;;7.08;79.93
71344;BME280;59146;43.850;25.948;2023-04-03T04:09:36;100462.25;;;7.32;79.55
71344;BME280;59146;43.850;25.948;2023-04-03T04:12:01;100363.84;;;6.72;80.12
71344;BME280;59146;43.850;25.948;2023-04-03T04:14:27;100459.38;;;8.07;77.99
71344;BME280;59146;43.850;25.948;2023-04-03T04:16:52;100502.19;;;9.61;71.73
71344;BME280;59146;43.850;25.948;2023-04-03T04:19:18;100522.84;;;10.97;65.65
71344;BME280;59146;43.850;25.948;2023-04-03T04:21:43;100516.06;;;11.62;60.96
71344;BME280;59146;43.850;25.948;2023-04-03T04:24:09;100444.03;;;11.83;58.96
71344;BME280;59146;43.850;25.948;2023-04-03T04:26:34;100498.59;;;13.28;55.84
71344;BME280;59146;43.850;25.948;2023-04-03T04:29:00;100463.47;;;14.35;50.83
71344;BME280;59146;43.850;25.948;2023-04-03T04:31:26;100507.22;;;14.47;54.36
71344;BME280;59146;43.850;25.948;2023-04-03T04:33:52;100507.72;;;14.96;52.36
71344;BME280;59146;43.850;25.948;2023-04-03T04:36:18;100512.34;;;16.11;48.83
71344;BME280;59146;43.850;25.948;2023-04-03T04:38:44;100540.63;;;17.71;43.60
71344;BME280;59146;43.850;25.948;2023-04-03T04:41:09;100469.88;;;17.16;42.50
71344;BME280;59146;43.850;25.948;2023-04-03T04:43:35;100517.84;;;16.91;44.40
71344;BME280;59146;43.850;25.948;2023-04-03T04:46:08;100516.38;;;17.07;44.67
71344;BME280;59146;43.850;25.948;2023-04-03T04:48:35;100535.31;;;17.22;45.10
71344;BME280;59146;43.850;25.948;2023-04-03T04:51:01;100411.34;;;16.52;44.93
71344;BME280;59146;43.850;25.948;2023-04-03T04:53:27;100496.00;;;17.19;45.21
71344;BME280;59146;43.850;25.948;2023-04-03T04:55:53;100491.63;;;16.99;44.34
71344;BME280;59146;43.850;25.948;2023-04-03T04:58:19;100544.53;;;18.34;42.33
71344;BME280;59146;43.850;25.948;2023-04-03T05:00:45;100462.47;;;17.88;43.04
71344;BME280;59146;43.850;25.948;2023-04-03T05:03:10;100481.81;;;17.69;43.49
71344;BME280;59146;43.850;25.948;2023-04-03T05:05:36;100520.03;;;18.13;43.26
71344;BME280;59146;43.850;25.948;2023-04-03T05:08:02;100510.53;;;17.04;44.34
71344;BME280;59146;43.850;25.948;2023-04-03T05:10:28;100493.31;;;18.25;43.35
71344;BME280;59146;43.850;25.948;2023-04-03T05:12:53;100494.47;;;19.33;40.27
71344;BME280;59146;43.850;25.948;2023-04-03T05:15:18;100507.31;;;20.26;37.87
71344;BME280;59146;43.850;25.948;2023-04-03T05:17:44;100544.28;;;19.74;38.68
71344;BME280;59146;43.850;25.948;2023-04-03T05:20:10;100490.56;;;18.83;40.11
71344;BME280;59146;43.850;25.948;2023-04-03T05:22:36;100531.44;;;19.35;40.69
71344;BME280;59146;43.850;25.948;2023-04-03T05:25:01;100511.31;;;19.42;39.94
71344;BME280;59146;43.850;25.948;2023-04-03T05:27:26;100498.88;;;18.88;41.04
71344;BME280;59146;43.850;25.948;2023-04-03T05:29:54;100548.69;;;18.46;42.09
71344;BME280;59146;43.850;25.948;2023-04-03T05:32:20;100498.50;;;16.81;45.64
71344;BME280;59146;43.850;25.948;2023-04-03T05:34:45;100572.50;;;17.49;45.36
71344;BME280;59146;43.850;25.948;2023-04-03T05:37:11;100520.59;;;17.88;44.24
71344;BME280;59146;43.850;25.948;2023-04-03T05:39:37;100571.25;;;18.60;42.78
71344;BME280;59146;43.850;25.948;2023-04-03T05:42:05;100514.22;;;17.90;43.44
71344;BME280;59146;43.850;25.948;2023-04-03T05:44:30;100566.72;;;17.55;45.10
71344;BME280;59146;43.850;25.948;2023-04-03T05:46:56;100589.13;;;17.70;45.29
71344;BME280;59146;43.850;25.948;2023-04-03T05:49:21;100548.84;;;17.38;45.61
71344;BME280;59146;43.850;25.948;2023-04-03T05:51:47;100587.16;;;17.63;45.61
71344;BME280;59146;43.850;25.948;2023-04-03T05:54:17;100532.72;;;16.92;46.43
71344;BME280;59146;43.850;25.948;2023-04-03T05:56:44;100538.78;;;15.89;49.23
71344;BME280;59146;43.850;25.948;2023-04-03T05:59:09;100549.28;;;15.57;50.44
71344;BME280;59146;43.850;25.948;2023-04-03T06:01:35;100559.72;;;14.70;52.44
71344;BME280;59146;43.850;25.948;2023-04-03T06:04:00;100570.31;;;13.99;55.46
71344;BME280;59146;43.850;25.948;2023-04-03T06:06:26;100597.78;;;13.83;57.77
71344;BME280;59146;43.850;25.948;2023-04-03T06:09:07;100629.72;;;14.13;57.76
71344;BME280;59146;43.850;25.948;2023-04-03T06:11:32;100595.97;;;13.96;57.35
71344;BME280;59146;43.850;25.948;2023-04-03T06:13:57;100578.09;;;13.28;58.17
71344;BME280;59146;43.850;25.948;2023-04-03T06:16:23;100638.53;;;12.89;60.48
71344;BME280;59146;43.850;25.948;2023-04-03T06:18:49;100576.81;;;12.33;62.76
71344;BME280;59146;43.850;25.948;2023-04-03T06:21:15;100596.63;;;12.37;63.07
71344;BME280;59146;43.850;25.948;2023-04-03T06:23:40;100592.34;;;12.49;62.57
71344;BME280;59146;43.850;25.948;2023-04-03T06:26:07;100586.59;;;12.44;62.78
71344;BME280;59146;43.850;25.948;2023-04-03T06:28:32;100621.31;;;12.85;62.01
71344;BME280;59146;43.850;25.948;2023-04-03T06:30:57;100634.34;;;13.37;59.93
71344;BME280;59146;43.850;25.948;2023-04-03T06:33:23;100644.75;;;14.11;58.93
71344;BME280;59146;43.850;25.948;2023-04-03T06:35:48;100644.91;;;14.79;56.99
71344;BME280;59146;43.850;25.948;2023-04-03T06:38:13;100587.22;;;14.19;56.83
71344;BME280;59146;43.850;25.948;2023-04-03T06:40:39;100621.06;;;14.93;55.81
71344;BME280;59146;43.850;25.948;2023-04-03T06:43:04;100660.41;;;15.17;56.12
71344;BME280;59146;43.850;25.948;2023-04-03T06:45:30;100672.69;;;14.94;56.39
71344;BME280;59146;43.850;25.948;2023-04-03T06:47:56;100674.47;;;15.50;53.53
71344;BME280;59146;43.850;25.948;2023-04-03T06:50:21;100638.97;;;15.99;54.11
71344;BME280;59146;43.850;25.948;2023-04-03T06:52:47;100673.56;;;16.16;52.98
71344;BME280;59146;43.850;25.948;2023-04-03T06:55:12;100585.50;;;15.76;53.33
71344;BME280;59146;43.850;25.948;2023-04-03T06:57:38;100627.41;;;16.22;51.56
71344;BME280;59146;43.850;25.948;2023-04-03T07:00:05;100621.59;;;16.07;50.99
71344;BME280;59146;43.850;25.948;2023-04-03T07:02:31;100619.03;;;15.41;51.00
71344;BME280;59146;43.850;25.948;2023-04-03T07:04:56;100626.56;;;15.34;52.05
71344;BME280;59146;43.850;25.948;2023-04-03T07:07:22;100621.13;;;14.69;54.33
71344;BME280;59146;43.850;25.948;2023-04-03T07:09:47;100681.72;;;15.36;52.72
71344;BME280;59146;43.850;25.948;2023-04-03T07:12:13;100662.69;;;14.64;54.87
71344;BME280;59146;43.850;25.948;2023-04-03T07:14:39;100630.88;;;14.56;54.30
71344;BME280;59146;43.850;25.948;2023-04-03T07:17:04;100650.28;;;14.77;54.45
71344;BME280;59146;43.850;25.948;2023-04-03T07:19:30;100603.47;;;14.82;53.81
71344;BME280;59146;43.850;25.948;2023-04-03T07:21:56;100620.22;;;15.03;52.52
71344;BME280;59146;43.850;25.948;2023-04-03T07:24:22;100640.91;;;14.51;53.96
71344;BME280;59146;43.850;25.948;2023-04-03T07:26:52;100669.50;;;14.32;54.42
71344;BME280;59146;43.850;25.948;2023-04-03T07:29:17;100672.59;;;14.95;53.96
71344;BME280;59146;43.850;25.948;2023-04-03T07:31:43;100675.38;;;15.38;53.24
71344;BME280;59146;43.850;25.948;2023-04-03T07:34:10;100663.13;;;14.93;53.70
71344;BME280;59146;43.850;25.948;2023-04-03T07:36:35;100692.84;;;15.28;53.50
71344;BME280;59146;43.850;25.948;2023-04-03T07:39:01;100679.16;;;15.58;52.37
71344;BME280;59146;43.850;25.948;2023-04-03T07:41:26;100675.00;;;15.09;54.43
71344;BME280;59146;43.850;25.948;2023-04-03T07:43:52;100649.22;;;14.80;54.75
71344;BME280;59146;43.850;25.948;2023-04-03T07:46:18;100642.19;;;14.80;53.89
71344;BME280;59146;43.850;25.948;2023-04-03T07:48:43;100688.91;;;15.34;52.69
71344;BME280;59146;43.850;25.948;2023-04-03T07:51:10;100661.97;;;15.08;53.10
71344;BME280;59146;43.850;25.948;2023-04-03T07:53:35;100665.19;;;15.00;54.95
71344;BME280;59146;43.850;25.948;2023-04-03T07:56:01;100676.09;;;15.29;52.50
71344;BME280;59146;43.850;25.948;2023-04-03T07:58:28;100697.88;;;15.42;53.07
71344;BME280;59146;43.850;25.948;2023-04-03T08:00:53;100659.22;;;15.09;52.23
71344;BME280;59146;43.850;25.948;2023-04-03T08:03:19;100685.78;;;15.18;51.98
71344;BME280;59146;43.850;25.948;2023-04-03T08:05:46;100692.06;;;15.04;53.04
71344;BME280;59146;43.850;25.948;2023-04-03T08:08:15;100645.06;;;14.88;53.74
71344;BME280;59146;43.850;25.948;2023-04-03T08:10:42;100704.41;;;15.14;54.37
71344;BME280;59146;43.850;25.948;2023-04-03T08:13:08;100639.47;;;14.58;55.80
71344;BME280;59146;43.850;25.948;2023-04-03T08:15:34;100700.09;;;15.02;54.07
71344;BME280;59146;43.850;25.948;2023-04-03T08:18:01;100597.03;;;14.41;54.23
71344;BME280;59146;43.850;25.948;2023-04-03T08:20:26;100664.16;;;14.79;55.23
71344;BME280;59146;43.850;25.948;2023-04-03T08:22:52;100662.84;;;14.74;56.18
71344;BME280;59146;43.850;25.948;2023-04-03T08:25:18;100700.44;;;14.98;55.14
71344;BME280;59146;43.850;25.948;2023-04-03T08:27:44;100645.28;;;14.85;54.70
71344;BME280;59146;43.850;25.948;2023-04-03T08:30:10;100659.66;;;14.92;54.32
71344;BME280;59146;43.850;25.948;2023-04-03T08:32:36;100701.69;;;15.16;55.43
71344;BME280;59146;43.850;25.948;2023-04-03T08:35:03;100685.91;;;15.38;54.40
71344;BME280;59146;43.850;25.948;2023-04-03T08:37:28;100659.50;;;15.51;53.83
71344;BME280;59146;43.850;25.948;2023-04-03T08:39:54;100691.31;;;15.92;53.65
71344;BME280;59146;43.850;25.948;2023-04-03T08:47:53;100671.78;;;15.95;53.59
71344;BME280;59146;43.850;25.948;2023-04-03T08:50:26;100629.69;;;15.39;55.67
71344;BME280;59146;43.850;25.948;2023-04-03T08:52:58;100651.63;;;15.51;55.38
71344;BME280;59146;43.850;25.948;2023-04-03T08:55:34;100682.47;;;15.93;54.92
71344;BME280;59146;43.850;25.948;2023-04-03T08:58:09;100608.88;;;15.58;55.52
71344;BME280;59146;43.850;25.948;2023-04-03T09:00:54;100659.84;;;15.79;56.45
71344;BME280;59146;43.850;25.948;2023-04-03T09:03:21;100562.34;;;15.26;56.34
71344;BME280;59146;43.850;25.948;2023-04-03T09:06:07;100654.13;;;16.17;55.61
71344;BME280;59146;43.850;25.948;2023-04-03T09:14:28;100640.50;;;16.12;55.24
71344;BME280;59146;43.850;25.948;2023-04-03T09:16:59;100641.59;;;16.52;53.55
71344;BME280;59146;43.850;25.948;2023-04-03T09:21:57;100607.22;;;16.32;53.89
71344;BME280;59146;43.850;25.948;2023-04-03T09:24:23;100589.13;;;16.07;54.20
71344;BME280;59146;43.850;25.948;2023-04-03T09:29:23;100620.41;;;16.63;54.31
71344;BME280;59146;43.850;25.948;2023-04-03T09:32:02;100623.94;;;16.53;53.44
71344;BME280;59146;43.850;25.948;2023-04-03T09:34:38;100647.59;;;16.32;53.79
71344;BME280;59146;43.850;25.948;2023-04-03T09:37:06;100541.47;;;16.10;53.02
71344;BME280;59146;43.850;25.948;2023-04-03T09:39:48;100645.19;;;16.72;52.18
71344;BME280;59146;43.850;25.948;2023-04-03T09:42:19;100552.16;;;15.97;52.53
71344;BME280;59146;43.850;25.948;2023-04-03T09:44:56;100656.03;;;16.15;53.67
71344;BME280;59146;43.850;25.948;2023-04-03T09:47:29;100592.31;;;15.89;54.18
71344;BME280;59146;43.850;25.948;2023-04-03T09:50:21;100629.97;;;16.44;52.97
71344;BME280;59146;43.850;25.948;2023-04-03T09:52:50;100584.66;;;16.18;53.34
71344;BME280;59146;43.850;25.948;2023-04-03T09:55:22;100596.31;;;16.05;53.53
71344;BME280;59146;43.850;25.948;2023-04-03T09:57:53;100649.94;;;16.57;52.93
71344;BME280;59146;43.850;25.948;2023-04-03T10:00:27;100645.97;;;16.63;52.49
71344;BME280;59146;43.850;25.948;2023-04-03T10:02:57;100603.19;;;16.48;52.38
71344;BME280;59146;43.850;25.948;2023-04-03T10:10:40;100599.25;;;16.54;52.27
71344;BME280;59146;43.850;25.948;2023-04-03T10:15:41;100569.31;;;16.23;52.80
71344;BME280;59146;43.850;25.948;2023-04-03T10:18:44;100640.28;;;16.67;53.15
71344;BME280;59146;43.850;25.948;2023-04-03T10:21:15;100628.13;;;16.97;51.97
71344;BME280;59146;43.850;25.948;2023-04-03T10:23:44;100635.84;;;17.39;51.02
71344;BME280;59146;43.850;25.948;2023-04-03T10:26:32;100642.88;;;17.50;50.70
71344;BME280;59146;43.850;25.948;2023-04-03T10:40:57;100629.34;;;17.13;50.78
71344;BME280;59146;43.850;25.948;2023-04-03T10:43:54;100619.53;;;17.25;50.27
71344;BME280;59146;43.850;25.948;2023-04-03T10:51:44;100596.56;;;16.86;51.38
71344;BME280;59146;43.850;25.948;2023-04-03T10:54:20;100560.94;;;17.01;51.34
71344;BME280;59146;43.850;25.948;2023-04-03T10:56:50;100604.72;;;17.43;49.49
71344;BME280;59146;43.850;25.948;2023-04-03T11:02:17;100558.75;;;16.76;49.03
71344;BME280;59146;43.850;25.948;2023-04-03T11:04:43;100593.38;;;17.22;49.01
71344;BME280;59146;43.850;25.948;2023-04-03T11:07:21;100520.00;;;17.16;48.88
71344;BME280;59146;43.850;25.948;2023-04-03T11:09:58;100586.41;;;18.00;50.74
71344;BME280;59146;43.850;25.948;2023-04-03T11:12:40;100595.69;;;17.85;50.06
71344;BME280;59146;43.850;25.948;2023-04-03T11:15:15;100571.13;;;18.13;46.63
71344;BME280;59146;43.850;25.948;2023-04-03T11:17:48;100594.44;;;18.75;46.09
71344;BME280;59146;43.850;25.948;2023-04-03T11:20:21;100588.50;;;18.64;46.28
71344;BME280;59146;43.850;25.948;2023-04-03T11:22:58;100552.06;;;17.91;49.94
71344;BME280;59146;43.850;25.948;2023-04-03T11:25:29;100574.84;;;18.01;50.92
71344;BME280;59146;43.850;25.948;2023-04-03T11:28:04;100585.72;;;18.27;47.52
71344;BME280;59146;43.850;25.948;2023-04-03T11:33:28;100589.50;;;17.56;50.33
71344;BME280;59146;43.850;25.948;2023-04-03T11:36:26;100555.50;;;17.82;50.38
71344;BME280;59146;43.850;25.948;2023-04-03T11:38:58;100567.63;;;18.22;48.58
71344;BME280;59146;43.850;25.948;2023-04-03T11:41:27;100546.19;;;18.25;47.37
71344;BME280;59146;43.850;25.948;2023-04-03T11:44:03;100559.81;;;18.02;48.72
71344;BME280;59146;43.850;25.948;2023-04-03T11:46:51;100570.28;;;18.32;46.96
71344;BME280;59146;43.850;25.948;2023-04-03T12:31:53;100501.41;;;17.76;48.95
71344;BME280;59146;43.850;25.948;2023-04-03T12:45:27;100516.28;;;18.15;48.84
71344;BME280;59146;43.850;25.948;2023-04-03T12:47:54;100523.94;;;17.80;48.84
71344;BME280;59146;43.850;25.948;2023-04-03T12:50:24;100531.81;;;17.52;50.17
71344;BME280;59146;43.850;25.948;2023-04-03T12:52:59;100479.72;;;17.14;50.51
71344;BME280;59146;43.850;25.948;2023-04-03T12:55:27;100526.28;;;17.24;50.70
71344;BME280;59146;43.850;25.948;2023-04-03T12:57:53;100536.31;;;17.30;50.50
71344;BME280;59146;43.850;25.948;2023-04-03T13:00:27;100449.88;;;16.74;51.07
71344;BME280;59146;43.850;25.948;2023-04-03T13:02:53;100528.53;;;17.29;50.85
71344;BME280;59146;43.850;25.948;2023-04-03T13:05:19;100464.59;;;16.76;51.18
71344;BME280;59146;43.850;25.948;2023-04-03T13:07:58;100490.91;;;16.97;51.00
71344;BME280;59146;43.850;25.948;2023-04-03T13:10:23;100519.38;;;17.33;50.36
71344;BME280;59146;43.850;25.948;2023-04-03T13:12:58;100535.50;;;17.30;50.68
71344;BME280;59146;43.850;25.948;2023-04-03T13:15:30;100507.63;;;17.07;50.98
71344;BME280;59146;43.850;25.948;2023-04-03T13:18:04;100502.16;;;16.89;51.33
71344;BME280;59146;43.850;25.948;2023-04-03T13:20:32;100460.16;;;16.77;51.16
71344;BME280;59146;43.850;25.948;2023-04-03T13:23:04;100462.28;;;16.83;50.84
71344;BME280;59146;43.850;25.948;2023-04-03T13:25:35;100521.31;;;17.31;51.14
71344;BME280;59146;43.850;25.948;2023-04-03T13:28:05;100432.59;;;16.50;51.38
71344;BME280;59146;43.850;25.948;2023-04-03T13:30:35;100507.34;;;17.10;51.38
71344;BME280;59146;43.850;25.948;2023-04-03T13:33:05;100493.22;;;17.11;51.37
71344;BME280;59146;43.850;25.948;2023-04-03T13:35:37;100491.19;;;16.94;52.71
71344;BME280;59146;43.850;25.948;2023-04-03T13:38:21;100476.44;;;16.51;53.62
71344;BME280;59146;43.850;25.948;2023-04-03T13:40:57;100522.63;;;16.76;54.24
71344;BME280;59146;43.850;25.948;2023-04-03T13:43:27;100507.56;;;16.88;54.16
71344;BME280;59146;43.850;25.948;2023-04-03T13:48:41;100504.34;;;16.54;55.16
71344;BME280;59146;43.850;25.948;2023-04-03T13:53:42;100507.59;;;16.67;55.26
71344;BME280;59146;43.850;25.948;2023-04-03T13:56:18;100302.75;;;15.36;55.54
71344;BME280;59146;43.850;25.948;2023-04-03T14:01:42;100462.72;;;16.16;56.71
71344;BME280;59146;43.850;25.948;2023-04-03T14:06:45;100459.25;;;16.36;56.10
71344;BME280;59146;43.850;25.948;2023-04-03T14:09:12;100506.41;;;16.50;56.37
71344;BME280;59146;43.850;25.948;2023-04-03T14:11:37;100509.38;;;16.05;57.73
71344;BME280;59146;43.850;25.948;2023-04-03T14:14:11;100501.88;;;16.21;57.68
71344;BME280;59146;43.850;25.948;2023-04-03T14:16:40;100445.84;;;15.98;57.69
71344;BME280;59146;43.850;25.948;2023-04-03T14:19:06;100502.44;;;16.24;57.67
71344;BME280;59146;43.850;25.948;2023-04-03T14:21:31;100512.41;;;16.00;58.69
71344;BME280;59146;43.850;25.948;2023-04-03T14:23:57;100526.16;;;16.04;58.68
71344;BME280;59146;43.850;25.948;2023-04-03T14:26:24;100486.47;;;15.84;58.57
71344;BME280;59146;43.850;25.948;2023-04-03T14:28:53;100457.13;;;15.68;58.43
71344;BME280;59146;43.850;25.948;2023-04-03T14:31:20;100519.66;;;15.87;59.12
71344;BME280;59146;43.850;25.948;2023-04-03T14:33:46;100489.78;;;15.66;59.70
71344;BME280;59146;43.850;25.948;2023-04-03T14:38:41;100469.03;;;15.30;59.88
71344;BME280;59146;43.850;25.948;2023-04-03T14:41:11;100488.25;;;15.63;59.58
71344;BME280;59146;43.850;25.948;2023-04-03T14:43:37;100463.28;;;15.47;59.32
71344;BME280;59146;43.850;25.948;2023-04-03T14:46:04;100481.34;;;15.51;60.09
71344;BME280;59146;43.850;25.948;2023-04-03T14:48:29;100453.13;;;15.31;60.18
71344;BME280;59146;43.850;25.948;2023-04-03T14:50:55;100503.47;;;15.60;59.93
71344;BME280;59146;43.850;25.948;2023-04-03T14:53:21;100452.31;;;15.31;59.88